GLT905 KCAK-KOSU
Flight info
| Callsign | GLT905 |
|---|---|
| Flight time | 0h 39m |
| Altitude | 20000 |
| Route | APE |
| Aircraft | BE9L/L-SBDFGRY/SB1 |
Departure
| Time | 2026-05-09 00:38 |
|---|---|
| Airport | Akron Canton Regional Airport (KCAK) |
Arrival
| Time | 2026-05-09 01:17 |
|---|---|
| Airport | The Ohio State University Airport - Don Scott Field (KOSU) |
| Time | Latitude | Longitude | Altitude | Speed | Heading |
|---|---|---|---|---|---|
| 2026-05-09 00:09 | 40.92571 | -81.44302 | 1207 ft | 0 kts | 92° |
| 2026-05-09 00:32 | 40.92570 | -81.44293 | 1207 ft | 0 kts | 96° |
| 2026-05-09 00:33 | 40.92570 | -81.44292 | 1207 ft | 2 kts | 90° |
| 2026-05-09 00:33 | 40.92616 | -81.44262 | 1205 ft | 12 kts | 5° |
| 2026-05-09 00:33 | 40.92706 | -81.44256 | 1203 ft | 13 kts | 4° |
| 2026-05-09 00:34 | 40.92782 | -81.44248 | 1201 ft | 1 kts | 22° |
| 2026-05-09 00:34 | 40.92794 | -81.44225 | 1199 ft | 5 kts | 76° |
| 2026-05-09 00:34 | 40.92794 | -81.44167 | 1197 ft | 10 kts | 91° |
| 2026-05-09 00:34 | 40.92794 | -81.44141 | 1196 ft | 0 kts | 93° |
| 2026-05-09 00:36 | 40.92794 | -81.44139 | 1196 ft | 1 kts | 93° |
| 2026-05-09 00:36 | 40.92791 | -81.44066 | 1194 ft | 9 kts | 94° |
| 2026-05-09 00:36 | 40.92768 | -81.44016 | 1194 ft | 7 kts | 182° |
| 2026-05-09 00:37 | 40.92765 | -81.44016 | 1194 ft | 0 kts | 181° |
| 2026-05-09 00:37 | 40.92677 | -81.44023 | 1196 ft | 51 kts | 186° |
| 2026-05-09 00:37 | 40.92082 | -81.44067 | 1236 ft | 108 kts | 188° |
| 2026-05-09 00:37 | 40.91282 | -81.44172 | 1524 ft | 123 kts | 185° |
| 2026-05-09 00:38 | 40.90391 | -81.44175 | 1937 ft | 133 kts | 180° |
| 2026-05-09 00:38 | 40.89500 | -81.44049 | 2545 ft | 127 kts | 175° |
| 2026-05-09 00:38 | 40.88609 | -81.43887 | 2947 ft | 132 kts | 179° |
| 2026-05-09 00:38 | 40.87638 | -81.43784 | 3118 ft | 149 kts | 184° |
| 2026-05-09 00:39 | 40.86535 | -81.43705 | 3192 ft | 167 kts | 181° |
| 2026-05-09 00:39 | 40.85334 | -81.43575 | 3458 ft | 165 kts | 182° |
| 2026-05-09 00:39 | 40.84213 | -81.43484 | 3677 ft | 167 kts | 186° |
| 2026-05-09 00:39 | 40.83122 | -81.43606 | 4180 ft | 148 kts | 191° |
| 2026-05-09 00:40 | 40.82170 | -81.44084 | 4170 ft | 154 kts | 230° |
| 2026-05-09 00:40 | 40.81462 | -81.45070 | 4518 ft | 147 kts | 229° |
| 2026-05-09 00:40 | 40.80806 | -81.45925 | 5143 ft | 124 kts | 225° |
| 2026-05-09 00:41 | 40.79684 | -81.47663 | 5660 ft | 123 kts | 246° |
| 2026-05-09 00:41 | 40.79299 | -81.48631 | 5945 ft | 124 kts | 244° |
| 2026-05-09 00:41 | 40.78901 | -81.49648 | 6162 ft | 128 kts | 242° |
| 2026-05-09 00:41 | 40.78349 | -81.50608 | 6352 ft | 134 kts | 231° |
| 2026-05-09 00:42 | 40.77752 | -81.51537 | 6658 ft | 128 kts | 236° |
| 2026-05-09 00:42 | 40.77239 | -81.52472 | 6905 ft | 124 kts | 239° |
| 2026-05-09 00:42 | 40.76751 | -81.53371 | 7169 ft | 117 kts | 239° |
| 2026-05-09 00:42 | 40.76295 | -81.54189 | 7458 ft | 111 kts | 234° |
| 2026-05-09 00:43 | 40.75798 | -81.55022 | 7524 ft | 119 kts | 242° |
| 2026-05-09 00:43 | 40.75380 | -81.55951 | 7702 ft | 119 kts | 244° |
| 2026-05-09 00:43 | 40.74998 | -81.56898 | 7913 ft | 114 kts | 259° |
| 2026-05-09 00:43 | 40.75063 | -81.57983 | 8052 ft | 118 kts | 276° |
| 2026-05-09 00:44 | 40.75201 | -81.58996 | 8358 ft | 113 kts | 277° |
| 2026-05-09 00:44 | 40.75448 | -81.60027 | 8657 ft | 119 kts | 282° |
| 2026-05-09 00:44 | 40.75702 | -81.61018 | 9096 ft | 113 kts | 283° |
| 2026-05-09 00:44 | 40.75952 | -81.62073 | 9287 ft | 125 kts | 283° |
| 2026-05-09 00:45 | 40.76233 | -81.63155 | 9617 ft | 126 kts | 284° |
| 2026-05-09 00:45 | 40.76536 | -81.64239 | 9887 ft | 131 kts | 287° |
| 2026-05-09 00:45 | 40.76866 | -81.65430 | 9925 ft | 143 kts | 286° |
| 2026-05-09 00:45 | 40.77125 | -81.66709 | 10115 ft | 143 kts | 275° |
| 2026-05-09 00:46 | 40.77097 | -81.68031 | 10219 ft | 149 kts | 262° |
| 2026-05-09 00:46 | 40.76691 | -81.69262 | 10422 ft | 151 kts | 236° |
| 2026-05-09 00:46 | 40.75934 | -81.70251 | 10609 ft | 153 kts | 231° |
| 2026-05-09 00:46 | 40.75209 | -81.71272 | 10755 ft | 154 kts | 231° |
| 2026-05-09 00:47 | 40.74429 | -81.72269 | 10858 ft | 158 kts | 233° |
| 2026-05-09 00:47 | 40.73683 | -81.73340 | 11005 ft | 158 kts | 233° |
| 2026-05-09 00:47 | 40.72852 | -81.74314 | 11194 ft | 159 kts | 224° |
| 2026-05-09 00:47 | 40.72158 | -81.75365 | 11405 ft | 151 kts | 238° |
| 2026-05-09 00:48 | 40.71510 | -81.76386 | 11762 ft | 143 kts | 234° |
| 2026-05-09 00:48 | 40.70764 | -81.77354 | 11882 ft | 154 kts | 230° |
| 2026-05-09 00:48 | 40.70051 | -81.78333 | 12293 ft | 144 kts | 234° |
| 2026-05-09 00:48 | 40.69439 | -81.79300 | 12671 ft | 136 kts | 237° |
| 2026-05-09 00:49 | 40.68868 | -81.80269 | 12971 ft | 135 kts | 238° |
| 2026-05-09 00:49 | 40.68280 | -81.81282 | 13177 ft | 140 kts | 235° |
| 2026-05-09 00:49 | 40.67612 | -81.82229 | 13417 ft | 142 kts | 236° |
| 2026-05-09 00:49 | 40.66984 | -81.83208 | 13638 ft | 145 kts | 233° |
| 2026-05-09 00:50 | 40.66229 | -81.84059 | 13954 ft | 140 kts | 229° |
| 2026-05-09 00:50 | 40.65469 | -81.84953 | 13826 ft | 151 kts | 232° |
| 2026-05-09 00:50 | 40.64742 | -81.85815 | 14094 ft | 140 kts | 229° |
| 2026-05-09 00:50 | 40.64031 | -81.86727 | 14144 ft | 138 kts | 234° |
| 2026-05-09 00:51 | 40.63354 | -81.87660 | 14134 ft | 141 kts | 239° |
| 2026-05-09 00:51 | 40.62874 | -81.88692 | 14092 ft | 147 kts | 247° |
| 2026-05-09 00:51 | 40.62372 | -81.89943 | 13985 ft | 151 kts | 239° |
| 2026-05-09 00:51 | 40.61715 | -81.91058 | 13957 ft | 154 kts | 233° |
| 2026-05-09 00:52 | 40.60868 | -81.91943 | 13918 ft | 160 kts | 224° |
| 2026-05-09 00:52 | 40.60033 | -81.92897 | 13930 ft | 156 kts | 230° |
| 2026-05-09 00:52 | 40.59255 | -81.93893 | 13896 ft | 158 kts | 232° |
| 2026-05-09 00:52 | 40.58471 | -81.94928 | 13907 ft | 157 kts | 232° |
| 2026-05-09 00:53 | 40.57714 | -81.95953 | 13971 ft | 163 kts | 232° |
| 2026-05-09 00:53 | 40.56940 | -81.97070 | 14048 ft | 166 kts | 233° |
| 2026-05-09 00:53 | 40.56095 | -81.98219 | 13941 ft | 179 kts | 232° |
| 2026-05-09 00:53 | 40.55262 | -81.99400 | 14112 ft | 175 kts | 233° |
| 2026-05-09 00:54 | 40.54419 | -82.00576 | 13968 ft | 188 kts | 230° |
| 2026-05-09 00:54 | 40.53477 | -82.01803 | 13897 ft | 193 kts | 231° |
| 2026-05-09 00:54 | 40.52537 | -82.03092 | 13806 ft | 197 kts | 233° |
| 2026-05-09 00:54 | 40.51656 | -82.04394 | 14024 ft | 189 kts | 232° |
| 2026-05-09 00:55 | 40.50709 | -82.05651 | 13874 ft | 196 kts | 235° |
| 2026-05-09 00:55 | 40.49793 | -82.06999 | 13906 ft | 194 kts | 233° |
| 2026-05-09 00:55 | 40.48895 | -82.08289 | 14013 ft | 191 kts | 232° |
| 2026-05-09 00:55 | 40.47989 | -82.09579 | 13944 ft | 195 kts | 232° |
| 2026-05-09 00:56 | 40.47066 | -82.10887 | 13926 ft | 193 kts | 232° |
| 2026-05-09 00:56 | 40.46152 | -82.12177 | 13773 ft | 194 kts | 232° |
| 2026-05-09 00:56 | 40.45423 | -82.13653 | 13372 ft | 199 kts | 246° |
| 2026-05-09 00:56 | 40.44783 | -82.15262 | 13218 ft | 194 kts | 246° |
| 2026-05-09 00:57 | 40.44189 | -82.16767 | 13054 ft | 185 kts | 246° |
| 2026-05-09 00:57 | 40.43577 | -82.18321 | 12391 ft | 202 kts | 246° |
| 2026-05-09 00:57 | 40.42934 | -82.19952 | 12185 ft | 195 kts | 246° |
| 2026-05-09 00:57 | 40.42329 | -82.21484 | 11999 ft | 186 kts | 246° |
| 2026-05-09 00:58 | 40.41726 | -82.23015 | 11486 ft | 196 kts | 246° |
| 2026-05-09 00:58 | 40.41103 | -82.24591 | 11200 ft | 191 kts | 246° |
| 2026-05-09 00:58 | 40.40496 | -82.26126 | 10904 ft | 189 kts | 246° |
| 2026-05-09 00:58 | 40.39894 | -82.27660 | 10497 ft | 191 kts | 246° |
| 2026-05-09 00:59 | 40.39286 | -82.29197 | 10148 ft | 191 kts | 245° |
| 2026-05-09 00:59 | 40.38686 | -82.30712 | 9831 ft | 188 kts | 246° |
| 2026-05-09 00:59 | 40.38062 | -82.32285 | 9737 ft | 192 kts | 246° |
| 2026-05-09 00:59 | 40.37463 | -82.33789 | 9946 ft | 185 kts | 245° |
| 2026-05-09 01:00 | 40.36867 | -82.35297 | 9935 ft | 189 kts | 246° |
| 2026-05-09 01:00 | 40.36234 | -82.36895 | 9739 ft | 201 kts | 245° |
| 2026-05-09 01:00 | 40.35587 | -82.38527 | 9720 ft | 202 kts | 245° |
| 2026-05-09 01:00 | 40.34940 | -82.40153 | 9683 ft | 201 kts | 245° |
| 2026-05-09 01:01 | 40.34293 | -82.41783 | 9564 ft | 200 kts | 245° |
| 2026-05-09 01:01 | 40.33654 | -82.43392 | 9413 ft | 200 kts | 245° |
| 2026-05-09 01:01 | 40.33015 | -82.44997 | 9286 ft | 199 kts | 245° |
| 2026-05-09 01:01 | 40.32370 | -82.46622 | 9124 ft | 200 kts | 245° |
| 2026-05-09 01:02 | 40.31736 | -82.48221 | 9033 ft | 197 kts | 245° |
| 2026-05-09 01:02 | 40.31098 | -82.49824 | 8828 ft | 199 kts | 245° |
| 2026-05-09 01:02 | 40.30460 | -82.51419 | 8689 ft | 196 kts | 245° |
| 2026-05-09 01:02 | 40.29834 | -82.52993 | 8416 ft | 196 kts | 245° |
| 2026-05-09 01:03 | 40.29202 | -82.54581 | 8167 ft | 195 kts | 245° |
| 2026-05-09 01:03 | 40.28577 | -82.56152 | 7945 ft | 194 kts | 245° |
| 2026-05-09 01:03 | 40.27953 | -82.57713 | 7713 ft | 193 kts | 244° |
| 2026-05-09 01:03 | 40.27335 | -82.59262 | 7449 ft | 194 kts | 244° |
| 2026-05-09 01:04 | 40.26709 | -82.60828 | 7278 ft | 191 kts | 244° |
| 2026-05-09 01:04 | 40.26091 | -82.62372 | 7012 ft | 192 kts | 244° |
| 2026-05-09 01:04 | 40.25477 | -82.63904 | 6803 ft | 191 kts | 243° |
| 2026-05-09 01:04 | 40.24865 | -82.65433 | 6626 ft | 188 kts | 243° |
| 2026-05-09 01:05 | 40.24262 | -82.66944 | 6379 ft | 190 kts | 243° |
| 2026-05-09 01:05 | 40.23653 | -82.68462 | 6194 ft | 189 kts | 243° |
| 2026-05-09 01:05 | 40.22429 | -82.71514 | 6100 ft | 187 kts | 242° |
| 2026-05-09 01:06 | 40.21823 | -82.73021 | 6173 ft | 187 kts | 242° |
| 2026-05-09 01:06 | 40.21221 | -82.74525 | 6152 ft | 187 kts | 242° |
| 2026-05-09 01:06 | 40.20609 | -82.76046 | 6154 ft | 188 kts | 242° |
| 2026-05-09 01:06 | 40.19998 | -82.77563 | 6182 ft | 187 kts | 242° |
| 2026-05-09 01:07 | 40.19391 | -82.79075 | 6160 ft | 188 kts | 242° |
| 2026-05-09 01:07 | 40.18778 | -82.80592 | 6149 ft | 190 kts | 243° |
| 2026-05-09 01:07 | 40.18168 | -82.82114 | 6204 ft | 189 kts | 243° |
| 2026-05-09 01:07 | 40.17570 | -82.83612 | 6229 ft | 187 kts | 242° |
| 2026-05-09 01:08 | 40.16951 | -82.85142 | 6148 ft | 190 kts | 240° |
| 2026-05-09 01:08 | 40.16337 | -82.86660 | 6158 ft | 190 kts | 241° |
| 2026-05-09 01:08 | 40.15723 | -82.88176 | 6213 ft | 188 kts | 242° |
| 2026-05-09 01:08 | 40.15110 | -82.89702 | 6132 ft | 188 kts | 242° |
| 2026-05-09 01:09 | 40.14366 | -82.91109 | 5948 ft | 190 kts | 223° |
| 2026-05-09 01:09 | 40.13376 | -82.92210 | 5629 ft | 189 kts | 223° |
| 2026-05-09 01:09 | 40.12383 | -82.93336 | 5257 ft | 191 kts | 223° |
| 2026-05-09 01:09 | 40.11453 | -82.94528 | 4927 ft | 188 kts | 240° |
| 2026-05-09 01:10 | 40.11364 | -82.96201 | 4583 ft | 197 kts | 286° |
| 2026-05-09 01:10 | 40.12330 | -82.97509 | 4246 ft | 215 kts | 329° |
| 2026-05-09 01:10 | 40.13837 | -82.97712 | 3978 ft | 221 kts | 355° |
| 2026-05-09 01:10 | 40.15367 | -82.97425 | 3626 ft | 231 kts | 23° |
| 2026-05-09 01:11 | 40.16429 | -82.95918 | 3376 ft | 231 kts | 68° |
| 2026-05-09 01:11 | 40.16498 | -82.93883 | 3059 ft | 224 kts | 113° |
| 2026-05-09 01:11 | 40.15552 | -82.92486 | 2969 ft | 194 kts | 163° |
| 2026-05-09 01:11 | 40.14328 | -82.92432 | 2909 ft | 168 kts | 202° |
| 2026-05-09 01:12 | 40.13339 | -82.93097 | 2811 ft | 157 kts | 213° |
| 2026-05-09 01:12 | 40.12289 | -82.93622 | 2562 ft | 162 kts | 201° |
| 2026-05-09 01:12 | 40.11266 | -82.94119 | 2650 ft | 157 kts | 210° |
| 2026-05-09 01:12 | 40.10353 | -82.94906 | 2650 ft | 158 kts | 224° |
| 2026-05-09 01:13 | 40.09601 | -82.95958 | 2584 ft | 157 kts | 237° |
| 2026-05-09 01:13 | 40.09074 | -82.97042 | 2443 ft | 122 kts | 241° |
| 2026-05-09 01:13 | 40.08722 | -82.97926 | 2175 ft | 103 kts | 246° |
| 2026-05-09 01:13 | 40.08468 | -82.98734 | 2081 ft | 90 kts | 250° |
| 2026-05-09 01:14 | 40.08272 | -82.99477 | 1975 ft | 84 kts | 254° |
| 2026-05-09 01:14 | 40.08122 | -83.00193 | 1840 ft | 81 kts | 257° |
| 2026-05-09 01:14 | 40.08037 | -83.00951 | 1779 ft | 83 kts | 262° |
| 2026-05-09 01:14 | 40.07979 | -83.01695 | 1660 ft | 83 kts | 265° |
| 2026-05-09 01:15 | 40.07940 | -83.02447 | 1516 ft | 79 kts | 267° |
| 2026-05-09 01:15 | 40.07908 | -83.03183 | 1420 ft | 83 kts | 269° |
| 2026-05-09 01:15 | 40.07874 | -83.03938 | 1291 ft | 83 kts | 270° |
| 2026-05-09 01:15 | 40.07850 | -83.04710 | 1176 ft | 87 kts | 267° |
| 2026-05-09 01:16 | 40.07821 | -83.05496 | 1045 ft | 86 kts | 267° |
| 2026-05-09 01:16 | 40.07791 | -83.06269 | 927 ft | 84 kts | 268° |
| 2026-05-09 01:16 | 40.07762 | -83.06981 | 896 ft | 65 kts | 268° |
| 2026-05-09 01:17 | 40.07636 | -83.07337 | 900 ft | 10 kts | 178° |
| 2026-05-09 01:17 | 40.07610 | -83.07427 | 900 ft | 13 kts | 268° |
| 2026-05-09 01:17 | 40.07591 | -83.07547 | 901 ft | 9 kts | 196° |
| 2026-05-09 01:17 | 40.07545 | -83.07564 | 901 ft | 4 kts | 242° |
| 2026-05-09 01:18 | 40.07545 | -83.07571 | 901 ft | 0 kts | 272° |